Time;durP1;ratioP1;P1;durP2;ratioP2;P2;SDS_P1;SDS_P2;PMS_P1;PMS_P2;Temp;Humidity;BMP_temperature;BMP_pressure;BME280_temperature;BME280_humidity;BME280_pressure;Samples;Min_cycle;Max_cycle;Signal;HPM_P1;HPM_P2
2021/07/23 00:01:08;;;;;;;13.75;10.07;;;;;;;-145.61;100.00;68426.72;6250882;22;20086;-94
2021/07/23 00:03:35;;;;;;;10.25;8.88;;;;;;;-145.61;100.00;68426.72;6250869;22;20034;-94
2021/07/23 00:06:00;;;;;;;11.18;9.73;;;;;;;-145.61;100.00;68426.72;6251831;22;20065;-95
2021/07/23 00:08:26;;;;;;;11.23;9.50;;;;;;;-145.61;100.00;68426.72;6250912;22;20325;-94
2021/07/23 00:10:52;;;;;;;11.07;9.00;;;;;;;-145.61;100.00;68426.72;6250963;22;20030;-95
2021/07/23 00:13:17;;;;;;;11.98;9.85;;;;;;;-145.61;100.00;68426.72;6250793;22;20046;-95
2021/07/23 00:15:43;;;;;;;10.07;8.73;;;;;;;-145.61;100.00;68426.72;6250808;22;20008;-95
2021/07/23 00:18:09;;;;;;;13.60;9.60;;;;;;;-145.61;100.00;68426.72;6250663;22;20126;-94
2021/07/23 00:20:34;;;;;;;11.30;8.48;;;;;;;-145.61;100.00;68426.72;6252370;22;20443;-94
2021/07/23 00:23:00;;;;;;;9.82;8.75;;;;;;;-145.61;100.00;68426.72;6253588;22;20008;-95
2021/07/23 00:25:25;;;;;;;12.20;9.68;;;;;;;-145.61;100.00;68426.72;6252745;22;20007;-95
2021/07/23 00:27:51;;;;;;;12.70;9.45;;;;;;;-145.61;100.00;68426.72;6252616;22;20011;-94
2021/07/23 00:30:16;;;;;;;13.77;9.35;;;;;;;-145.61;100.00;68426.72;6252836;22;20008;-95
2021/07/23 00:32:42;;;;;;;12.57;9.52;;;;;;;-145.61;100.00;68426.72;6253409;22;20161;-94
2021/07/23 00:35:09;;;;;;;12.38;9.10;;;;;;;-145.61;100.00;68426.72;6252507;22;20008;-95
2021/07/23 00:37:38;;;;;;;13.40;9.20;;;;;;;-145.61;100.00;68426.72;6252894;22;20086;-95
2021/07/23 00:40:05;;;;;;;11.48;9.32;;;;;;;-145.61;100.00;68426.72;6252539;22;20015;-95
2021/07/23 00:42:42;;;;;;;11.40;9.13;;;;;;;-145.61;100.00;68426.72;6251965;22;20003;-95
2021/07/23 00:45:09;;;;;;;13.57;9.63;;;;;;;-145.61;100.00;68426.72;6252562;22;20003;-95
2021/07/23 00:47:37;;;;;;;18.52;9.02;;;;;;;-145.61;100.00;68426.72;6252413;22;20004;-95
2021/07/23 00:50:07;;;;;;;11.98;8.88;;;;;;;-145.61;100.00;68426.72;6252393;22;20006;-94
2021/07/23 00:52:33;;;;;;;;;;;;;;;-145.61;100.00;68426.72;6252963;22;20007;-95
2021/07/23 00:55:07;;;;;;;12.73;8.77;;;;;;;-145.61;100.00;68426.72;6252232;22;20205;-94
2021/07/23 00:57:34;;;;;;;11.75;8.57;;;;;;;-145.61;100.00;68426.72;6252358;22;20011;-95
2021/07/23 01:00:02;;;;;;;11.07;9.05;;;;;;;-145.61;100.00;68426.72;6252131;22;20079;-94
2021/07/23 01:02:27;;;;;;;12.48;8.63;;;;;;;-145.61;100.00;68426.72;6251868;22;20011;-94
2021/07/23 01:04:53;;;;;;;11.75;8.95;;;;;;;-145.61;100.00;68426.72;6252097;22;19995;-94
2021/07/23 01:07:19;;;;;;;11.45;8.70;;;;;;;-145.61;100.00;68426.72;6252368;22;20000;-94
2021/07/23 01:09:45;;;;;;;11.55;9.77;;;;;;;-145.61;100.00;68426.72;6252087;22;20004;-94
2021/07/23 01:12:12;;;;;;;13.65;9.35;;;;;;;-145.61;100.00;68426.72;6252013;22;20706;-95
2021/07/23 01:14:39;;;;;;;10.80;9.40;;;;;;;-145.61;100.00;68426.72;6252001;22;20448;-95
2021/07/23 01:17:05;;;;;;;10.80;8.80;;;;;;;-145.61;100.00;68426.72;6251966;22;20015;-95
2021/07/23 01:19:37;;;;;;;11.93;8.90;;;;;;;-145.61;100.00;68426.72;6252256;22;20015;-94
2021/07/23 01:22:04;;;;;;;13.68;9.20;;;;;;;-145.61;100.00;68426.72;6251985;22;20003;-92
2021/07/23 01:24:31;;;;;;;12.75;8.90;;;;;;;-145.61;100.00;68426.72;6251985;22;20006;-94
2021/07/23 01:26:57;;;;;;;11.40;8.90;;;;;;;-145.61;100.00;68426.72;6252076;22;20011;-96
2021/07/23 01:29:23;;;;;;;14.65;9.02;;;;;;;-145.61;100.00;68426.72;6252042;22;20126;-94
2021/07/23 01:31:48;;;;;;;12.02;8.90;;;;;;;-145.61;100.00;68426.72;6251229;22;20004;-95
2021/07/23 01:34:14;;;;;;;11.50;9.65;;;;;;;-145.61;100.00;68426.72;6251902;22;20447;-94
2021/07/23 01:36:39;;;;;;;11.70;9.05;;;;;;;-145.61;100.00;68426.72;6251939;22;20014;-95
2021/07/23 01:39:06;;;;;;;11.30;8.75;;;;;;;-145.61;100.00;68426.72;6251369;22;20003;-95
2021/07/23 01:41:35;;;;;;;12.20;9.02;;;;;;;-145.61;100.00;68426.72;6251833;22;20087;-94
2021/07/23 01:44:01;;;;;;;14.20;9.43;;;;;;;-145.61;100.00;68426.72;6251362;22;20031;-94
2021/07/23 01:46:26;;;;;;;13.60;9.40;;;;;;;-145.61;100.00;68426.72;6251664;22;20004;-93
2021/07/23 01:48:52;;;;;;;13.85;9.30;;;;;;;-145.61;100.00;68426.72;6251999;22;20011;-94
2021/07/23 01:51:17;;;;;;;14.68;9.10;;;;;;;-145.61;100.00;68426.72;6252025;22;20000;-94
2021/07/23 01:53:43;;;;;;;14.50;9.45;;;;;;;-145.61;100.00;68426.72;6251984;22;20004;-93
2021/07/23 01:56:08;;;;;;;13.30;9.63;;;;;;;-145.61;100.00;68426.72;6251840;22;20018;-94
2021/07/23 01:58:34;;;;;;;14.23;8.88;;;;;;;-145.61;100.00;68426.72;6251600;22;20015;-93
2021/07/23 02:01:00;;;;;;;13.55;9.05;;;;;;;-145.61;100.00;68426.72;6251996;22;20039;-93
2021/07/23 02:03:26;;;;;;;14.63;9.30;;;;;;;-145.61;100.00;68426.72;6251691;22;20057;-93
2021/07/23 02:05:51;;;;;;;14.82;9.15;;;;;;;-145.61;100.00;68426.72;6251543;22;19996;-94
2021/07/23 02:08:17;;;;;;;13.13;9.77;;;;;;;-145.61;100.00;68426.72;6251724;22;20008;-93
2021/07/23 02:10:42;;;;;;;12.70;9.07;;;;;;;-145.61;100.00;68426.72;6251519;22;20313;-93
2021/07/23 02:13:08;;;;;;;12.65;9.52;;;;;;;-145.61;100.00;68426.72;6251580;22;20003;-94
2021/07/23 02:15:34;;;;;;;16.92;9.98;;;;;;;-145.61;100.00;68426.72;6251158;22;20002;-94
2021/07/23 02:17:59;;;;;;;11.38;8.82;;;;;;;-145.61;100.00;68426.72;6251468;22;20061;-93
2021/07/23 02:20:25;;;;;;;17.80;9.88;;;;;;;-145.61;100.00;68426.72;6251454;22;20367;-93
2021/07/23 02:22:51;;;;;;;29.27;10.07;;;;;;;-145.61;100.00;68426.72;6251627;22;20031;-94
2021/07/23 02:25:20;;;;;;;14.90;9.70;;;;;;;-145.61;100.00;68426.72;6250923;22;20248;-93
2021/07/23 02:27:46;;;;;;;11.43;8.90;;;;;;;-145.61;100.00;68426.72;6251414;22;19999;-95
2021/07/23 02:30:12;;;;;;;13.90;9.50;;;;;;;-145.61;100.00;68426.72;6251223;22;20000;-95
2021/07/23 02:32:37;;;;;;;11.77;9.32;;;;;;;-145.61;100.00;68426.72;6251363;22;20086;-95
2021/07/23 02:35:03;;;;;;;11.07;9.60;;;;;;;-145.61;100.00;68426.72;6278258;22;20053;-94
2021/07/23 02:37:30;;;;;;;13.25;8.85;;;;;;;-145.61;100.00;68426.72;6251426;22;20007;-95
2021/07/23 02:39:55;;;;;;;12.43;8.88;;;;;;;-145.61;100.00;68426.72;6251070;22;20033;-95
2021/07/23 02:42:21;;;;;;;15.50;9.40;;;;;;;-145.61;100.00;68426.72;6251125;22;20058;-94
2021/07/23 02:44:46;;;;;;;15.35;9.77;;;;;;;-145.61;100.00;68426.72;6251284;22;20004;-95
2021/07/23 02:47:12;;;;;;;17.48;9.55;;;;;;;-145.61;100.00;68426.72;6251519;22;20017;-94
2021/07/23 02:49:38;;;;;;;14.80;9.23;;;;;;;-145.61;100.00;68426.72;6251112;22;20003;-94
2021/07/23 02:52:04;;;;;;;12.55;9.63;;;;;;;-145.61;100.00;68426.72;6251347;22;20079;-94
2021/07/23 02:54:29;;;;;;;10.23;9.15;;;;;;;-145.61;100.00;68426.72;6251073;22;20011;-94
2021/07/23 02:56:55;;;;;;;14.15;8.93;;;;;;;-145.61;100.00;68426.72;6251238;22;20034;-94
2021/07/23 02:59:20;;;;;;;17.90;9.88;;;;;;;-145.61;100.00;68426.72;6251000;22;20015;-95
2021/07/23 03:01:46;;;;;;;294.48;24.65;;;;;;;-145.61;100.00;68426.72;6250892;22;20340;-95
2021/07/23 03:04:11;;;;;;;12.90;9.52;;;;;;;-145.61;100.00;68426.72;6251362;22;19999;-94
2021/07/23 03:06:37;;;;;;;14.15;9.27;;;;;;;-145.61;100.00;68426.72;6251232;22;20502;-95
2021/07/23 03:09:02;;;;;;;11.43;9.63;;;;;;;-145.61;100.00;68426.72;6250263;22;20094;-94
2021/07/23 03:11:28;;;;;;;10.85;8.88;;;;;;;-145.61;100.00;68426.72;6250493;22;20000;-94
2021/07/23 03:13:55;;;;;;;16.13;9.52;;;;;;;-145.61;100.00;68426.72;6250384;22;20007;-95
2021/07/23 03:16:21;;;;;;;13.82;8.70;;;;;;;-145.61;100.00;68426.72;6249828;22;20003;-94
2021/07/23 03:18:47;;;;;;;13.43;9.75;;;;;;;-145.61;100.00;68426.72;6249076;22;20015;-94
2021/07/23 03:21:12;;;;;;;15.18;10.30;;;;;;;-145.61;100.00;68426.72;6250297;22;20037;-95
2021/07/23 03:23:38;;;;;;;12.43;9.65;;;;;;;-145.61;100.00;68426.72;6249448;22;20004;-94
2021/07/23 03:26:07;;;;;;;13.63;10.20;;;;;;;-145.61;100.00;68426.72;6250874;22;20018;-93
2021/07/23 03:28:32;;;;;;;12.18;10.25;;;;;;;-145.61;100.00;68426.72;6251016;22;20004;-95
2021/07/23 03:30:58;;;;;;;15.50;13.10;;;;;;;-145.61;100.00;68426.72;6250988;22;20489;-95
2021/07/23 03:33:24;;;;;;;17.33;15.00;;;;;;;-145.61;100.00;68426.72;6250815;22;20004;-94
2021/07/23 03:35:49;;;;;;;18.52;14.38;;;;;;;-145.61;100.00;68426.72;6250996;22;20007;-94
2021/07/23 03:38:15;;;;;;;14.30;11.50;;;;;;;-145.61;100.00;68426.72;6251363;22;20060;-95
2021/07/23 03:40:40;;;;;;;13.05;10.13;;;;;;;-145.61;100.00;68426.72;6250710;22;20027;-94
2021/07/23 03:43:06;;;;;;;16.50;9.93;;;;;;;-145.61;100.00;68426.72;6250849;22;20003;-95
2021/07/23 03:45:31;;;;;;;14.85;10.00;;;;;;;-145.61;100.00;68426.72;6250822;22;20053;-95
2021/07/23 03:47:57;;;;;;;16.90;11.27;;;;;;;-145.61;100.00;68426.72;6251100;22;20003;-95
2021/07/23 03:50:22;;;;;;;13.18;9.70;;;;;;;-145.61;100.00;68426.72;6250907;22;20003;-93
2021/07/23 03:52:48;;;;;;;13.73;9.55;;;;;;;-145.61;100.00;68426.72;6226612;22;20031;-95
2021/07/23 03:55:13;;;;;;;14.30;9.90;;;;;;;-145.61;100.00;68426.72;6252689;22;20003;-95
2021/07/23 03:57:39;;;;;;;15.80;10.43;;;;;;;-145.61;100.00;68426.72;6253864;22;20428;-94
2021/07/23 04:00:08;;;;;;;12.40;9.93;;;;;;;-145.61;100.00;68426.72;6252910;22;20011;-94
2021/07/23 04:02:35;;;;;;;13.93;9.95;;;;;;;-145.61;100.00;68426.72;6252898;22;20014;-95
2021/07/23 04:05:01;;;;;;;14.15;9.82;;;;;;;-145.61;100.00;68426.72;6252923;22;20034;-94
2021/07/23 04:07:29;;;;;;;13.40;9.75;;;;;;;-145.61;100.00;68426.72;6252881;22;20014;-95
2021/07/23 04:09:55;;;;;;;12.43;10.50;;;;;;;-145.61;100.00;68426.72;6252692;22;20133;-94
2021/07/23 04:12:21;;;;;;;10.68;9.25;;;;;;;-145.61;100.00;68426.72;6252624;22;20104;-94
2021/07/23 04:14:46;;;;;;;12.75;9.95;;;;;;;-145.61;100.00;68426.72;6252623;22;20014;-93
2021/07/23 04:17:12;;;;;;;14.02;10.30;;;;;;;-145.61;100.00;68426.72;6252719;22;20007;-93
2021/07/23 04:19:37;;;;;;;15.25;10.07;;;;;;;-145.61;100.00;68426.72;6252714;22;20057;-95
2021/07/23 04:22:03;;;;;;;11.60;10.32;;;;;;;-145.61;100.00;68426.72;6252686;22;20003;-93
2021/07/23 04:24:29;;;;;;;14.43;10.73;;;;;;;-145.61;100.00;68426.72;6252582;22;20000;-94
2021/07/23 04:26:59;;;;;;;13.63;10.27;;;;;;;-145.61;100.00;68426.72;6252370;22;20026;-93
2021/07/23 04:29:25;;;;;;;16.20;10.30;;;;;;;-145.61;100.00;68426.72;6252642;22;20027;-94
2021/07/23 04:31:51;;;;;;;15.00;9.75;;;;;;;-145.61;100.00;68426.72;6252496;22;20008;-93
2021/07/23 04:34:17;;;;;;;14.85;10.50;;;;;;;-145.61;100.00;68426.72;6252527;22;20808;-94
2021/07/23 04:36:42;;;;;;;14.27;9.80;;;;;;;-145.61;100.00;68426.72;6252451;22;20000;-93
2021/07/23 04:39:08;;;;;;;12.55;10.23;;;;;;;-145.61;100.00;68426.72;6252339;22;20008;-93
2021/07/23 04:41:33;;;;;;;13.40;10.68;;;;;;;-145.61;100.00;68426.72;6252492;22;20004;-93
2021/07/23 04:43:59;;;;;;;18.88;10.50;;;;;;;-145.61;100.00;68426.72;6252482;22;20007;-94
2021/07/23 04:46:25;;;;;;;12.55;9.93;;;;;;;-145.61;100.00;68426.72;6252575;22;20376;-93
2021/07/23 04:48:50;;;;;;;14.27;10.55;;;;;;;-145.61;100.00;68426.72;6252634;22;20011;-93
2021/07/23 04:51:16;;;;;;;16.02;10.13;;;;;;;-145.61;100.00;68426.72;6252382;22;20000;-94
2021/07/23 04:53:42;;;;;;;16.33;10.50;;;;;;;-145.61;100.00;68426.72;6252568;22;20031;-93
2021/07/23 04:56:07;;;;;;;12.93;9.98;;;;;;;-145.61;100.00;68426.72;6254389;22;20004;-94
2021/07/23 04:58:33;;;;;;;15.65;10.05;;;;;;;-145.61;100.00;68426.72;6252981;22;20031;-94
2021/07/23 05:00:59;;;;;;;12.52;10.02;;;;;;;-145.61;100.00;68426.72;6252593;22;20006;-94
2021/07/23 05:03:35;;;;;;;12.05;9.65;;;;;;;-145.61;100.00;68426.72;6252172;22;20000;-94
2021/07/23 05:06:00;;;;;;;12.45;9.65;;;;;;;-145.61;100.00;68426.72;6252177;22;20077;-94
2021/07/23 05:08:31;;;;;;;13.80;10.27;;;;;;;-145.61;100.00;68426.72;6254182;22;19999;-95
2021/07/23 05:10:57;;;;;;;16.48;10.68;;;;;;;-145.61;100.00;68426.72;6253614;22;20007;-95
2021/07/23 05:13:22;;;;;;;12.05;10.18;;;;;;;-145.61;100.00;68426.72;6252547;22;20006;-96
2021/07/23 05:15:48;;;;;;;13.55;10.50;;;;;;;-145.61;100.00;68426.72;6252173;22;20004;-95
2021/07/23 05:18:15;;;;;;;14.27;10.50;;;;;;;-145.61;100.00;68426.72;6252378;22;20091;-96
2021/07/23 05:20:43;;;;;;;16.27;10.82;;;;;;;-145.61;100.00;68426.72;6252960;22;20011;-96
2021/07/23 05:23:09;;;;;;;13.32;10.52;;;;;;;-145.61;100.00;68426.72;6252081;22;20065;-95
2021/07/23 05:25:35;;;;;;;16.40;10.57;;;;;;;-145.61;100.00;68426.72;6252164;22;20015;-96
2021/07/23 05:28:01;;;;;;;14.57;11.10;;;;;;;-145.61;100.00;68426.72;6252382;22;20022;-95
2021/07/23 05:30:27;;;;;;;17.90;11.50;;;;;;;-145.61;100.00;68426.72;6252262;22;20003;-95
2021/07/23 05:32:52;;;;;;;20.40;12.02;;;;;;;-145.61;100.00;68426.72;6252110;22;20008;-96
2021/07/23 05:35:18;;;;;;;15.27;11.57;;;;;;;-145.61;100.00;68426.72;6252281;22;20058;-96
2021/07/23 05:37:45;;;;;;;14.68;11.45;;;;;;;-145.61;100.00;68426.72;6251996;22;20007;-96
2021/07/23 05:40:11;;;;;;;14.00;10.27;;;;;;;-145.61;100.00;68426.72;6251569;22;20016;-95
2021/07/23 05:42:37;;;;;;;14.23;10.30;;;;;;;-145.61;100.00;68426.72;6252007;22;20023;-95
2021/07/23 05:45:03;;;;;;;17.13;11.32;;;;;;;-145.61;100.00;68426.72;6251849;22;19999;-95
2021/07/23 05:47:28;;;;;;;14.15;10.50;;;;;;;-145.61;100.00;68426.72;6251938;22;20000;-95
2021/07/23 05:49:54;;;;;;;14.70;11.75;;;;;;;-145.61;100.00;68426.72;6251865;22;20014;-95
2021/07/23 05:52:20;;;;;;;15.15;11.23;;;;;;;-145.61;100.00;68426.72;6252033;22;20007;-95
2021/07/23 05:54:45;;;;;;;16.98;11.95;;;;;;;-145.61;100.00;68426.72;6251709;22;20007;-95
2021/07/23 05:57:11;;;;;;;16.73;11.45;;;;;;;-145.61;100.00;68426.72;6251969;22;20006;-96
2021/07/23 05:59:40;;;;;;;14.00;10.77;;;;;;;-145.61;100.00;68426.72;6252513;22;20014;-96
2021/07/23 06:02:06;;;;;;;18.37;11.70;;;;;;;-145.61;100.00;68426.72;6251309;22;19999;-94
2021/07/23 06:04:33;;;;;;;19.50;11.77;;;;;;;-145.61;100.00;68426.72;6250530;22;20233;-95
2021/07/23 06:07:03;;;;;;;15.65;11.73;;;;;;;-145.61;100.00;68426.72;6251740;22;20010;-95
2021/07/23 06:09:29;;;;;;;15.23;11.45;;;;;;;-145.61;100.00;68426.72;6251975;22;20003;-94
2021/07/23 06:11:54;;;;;;;15.43;11.90;;;;;;;-145.61;100.00;68426.72;6251534;22;20031;-95
2021/07/23 06:14:19;;;;;;;15.00;12.15;;;;;;;-145.61;100.00;68426.72;6251537;22;20031;-94
2021/07/23 06:16:45;;;;;;;15.25;11.32;;;;;;;-145.61;100.00;68426.72;6251338;22;20083;-95
2021/07/23 06:19:11;;;;;;;15.82;11.82;;;;;;;-145.61;100.00;68426.72;6251569;22;20034;-95
2021/07/23 06:21:36;;;;;;;16.92;11.15;;;;;;;-145.61;100.00;68426.72;6251660;22;20007;-95
2021/07/23 06:24:02;;;;;;;18.50;12.00;;;;;;;-145.61;100.00;68426.72;6251368;22;20086;-95
2021/07/23 06:26:28;;;;;;;15.52;11.50;;;;;;;-145.61;100.00;68426.72;6250166;22;20007;-94
2021/07/23 06:28:53;;;;;;;15.93;11.02;;;;;;;-145.61;100.00;68426.72;6251088;22;20003;-96
2021/07/23 06:31:19;;;;;;;15.13;12.00;;;;;;;-145.61;100.00;68426.72;6251287;22;20086;-95
2021/07/23 06:33:44;;;;;;;17.20;11.88;;;;;;;-145.61;100.00;68426.72;6251455;22;20007;-95
2021/07/23 06:36:10;;;;;;;16.95;11.80;;;;;;;-145.61;100.00;68426.72;6251495;22;20031;-95
2021/07/23 06:38:35;;;;;;;15.95;11.82;;;;;;;-145.61;100.00;68426.72;6251508;22;20065;-95
2021/07/23 06:41:07;;;;;;;14.85;11.57;;;;;;;-145.61;100.00;68426.72;6250906;22;20028;-96
2021/07/23 06:43:33;;;;;;;15.88;11.95;;;;;;;-145.61;100.00;68426.72;6251414;22;20096;-95
2021/07/23 06:46:00;;;;;;;15.38;12.05;;;;;;;-145.61;100.00;68426.72;6251459;22;19999;-95
2021/07/23 06:48:26;;;;;;;16.33;13.23;;;;;;;-145.61;100.00;68426.72;6251401;22;20010;-95
2021/07/23 06:50:52;;;;;;;13.70;11.45;;;;;;;-145.61;100.00;68426.72;6251127;22;20003;-95
2021/07/23 06:53:19;;;;;;;14.32;11.82;;;;;;;-145.61;100.00;68426.72;6251086;22;20007;-95
2021/07/23 06:55:45;;;;;;;14.70;11.27;;;;;;;-145.61;100.00;68426.72;6251070;22;20011;-95
2021/07/23 06:58:10;;;;;;;20.40;12.32;;;;;;;-145.61;100.00;68426.72;6251094;22;20034;-95
2021/07/23 07:00:36;;;;;;;23.33;12.35;;;;;;;-145.61;100.00;68426.72;6250662;22;20011;-96
2021/07/23 07:03:03;;;;;;;13.95;11.88;;;;;;;-145.61;100.00;68426.72;6250127;22;20019;-95
2021/07/23 07:05:29;;;;;;;19.50;12.43;;;;;;;-145.61;100.00;68426.72;6250835;22;20082;-95
2021/07/23 07:07:54;;;;;;;16.85;12.18;;;;;;;-145.61;100.00;68426.72;6250491;22;20042;-95
2021/07/23 07:10:20;;;;;;;17.25;12.40;;;;;;;-145.61;100.00;68426.72;6250588;22;20340;-95
2021/07/23 07:12:45;;;;;;;14.88;12.20;;;;;;;-145.61;100.00;68426.72;6250878;22;19999;-94
2021/07/23 07:15:18;;;;;;;18.80;12.30;;;;;;;-145.61;100.00;68426.72;6251112;22;20340;-94
2021/07/23 07:17:44;;;;;;;16.70;11.25;;;;;;;-145.61;100.00;68426.72;6251111;22;20023;-94
2021/07/23 07:20:10;;;;;;;14.57;10.90;;;;;;;-145.61;100.00;68426.72;6250735;22;20420;-95
2021/07/23 07:22:36;;;;;;;15.52;10.55;;;;;;;-145.61;100.00;68426.72;6250682;22;20042;-95
2021/07/23 07:25:01;;;;;;;16.33;10.68;;;;;;;-145.61;100.00;68426.72;6250908;22;20317;-94
2021/07/23 07:27:27;;;;;;;15.85;10.57;;;;;;;-145.61;100.00;68426.72;6250714;22;20003;-95
2021/07/23 07:29:52;;;;;;;13.75;9.10;;;;;;;-145.61;100.00;68426.72;6250524;22;20027;-96
2021/07/23 07:32:18;;;;;;;11.30;9.23;;;;;;;-145.61;100.00;68426.72;6251010;22;20007;-96
2021/07/23 07:34:43;;;;;;;14.85;9.65;;;;;;;-145.61;100.00;68426.72;6250876;22;20023;-95
2021/07/23 07:37:09;;;;;;;9.55;8.55;;;;;;;-145.61;100.00;68426.72;6251056;22;20000;-95
2021/07/23 07:39:34;;;;;;;15.10;9.70;;;;;;;17.32;70.64;96439.38;6250660;22;20023;-95
2021/07/23 07:42:01;;;;;;;11.65;9.23;;;;;;;17.32;70.64;96439.38;6251010;22;20086;-94
2021/07/23 07:44:26;;;;;;;12.73;9.93;;;;;;;19.01;100.00;68426.72;6251022;22;20074;-94
2021/07/23 07:46:52;;;;;;;15.65;9.00;;;;;;;19.01;64.00;96316.38;6251954;22;20069;-95
2021/07/23 07:49:19;;;;;;;11.25;8.88;;;;;;;19.01;64.00;96316.38;6250854;22;20012;-95
2021/07/23 07:51:45;;;;;;;11.57;8.70;;;;;;;19.01;64.00;96316.38;6250669;22;20011;-94
2021/07/23 07:54:12;;;;;;;11.57;8.52;;;;;;;19.01;64.00;96316.38;6250502;22;20007;-95
2021/07/23 07:56:38;;;;;;;11.95;8.77;;;;;;;19.75;62.77;96290.31;6250983;22;20053;-95
2021/07/23 07:59:03;;;;;;;12.77;8.07;;;;;;;19.85;61.73;96287.94;6250775;22;20004;-94
2021/07/23 08:01:29;;;;;;;9.80;8.10;;;;;;;19.92;100.00;96303.91;6250876;22;20041;-95
2021/07/23 08:03:54;;;;;;;11.10;7.70;;;;;;;19.94;60.02;96308.88;6250878;22;20412;-96
2021/07/23 08:06:31;;;;;;;14.27;8.40;;;;;;;19.88;60.29;96306.94;6250729;22;19996;-96
2021/07/23 08:09:03;;;;;;;10.57;7.97;;;;;;;19.86;60.83;96305.97;6250427;22;20022;-94
2021/07/23 08:11:28;;;;;;;9.73;7.57;;;;;;;20.02;62.21;96318.03;6250761;22;20082;-94
2021/07/23 08:13:54;;;;;;;10.48;7.85;;;;;;;20.09;60.11;96312.69;6250189;22;20467;-94
2021/07/23 08:16:19;;;;;;;12.40;7.72;;;;;;;20.10;60.01;96299.63;6250341;22;20069;-96
2021/07/23 08:18:44;;;;;;;9.93;7.40;;;;;;;19.98;58.86;96274.25;6250588;22;20372;-94
2021/07/23 08:21:10;;;;;;;13.02;8.13;;;;;;;20.05;58.33;96278.41;6250394;22;20014;-94
2021/07/23 08:23:54;;;;;;;8.25;7.30;;;;;;;20.15;57.78;96288.53;6250348;22;20000;-95
2021/07/23 08:26:19;;;;;;;10.18;7.50;;;;;;;20.04;58.27;96285.94;6250753;22;20409;-94
2021/07/23 08:28:45;;;;;;;9.05;7.90;;;;;;;20.03;58.40;96283.72;6250722;22;20010;-94
2021/07/23 08:31:10;;;;;;;11.00;7.57;;;;;;;19.94;58.01;96268.28;6250379;22;20016;-95
2021/07/23 08:33:36;;;;;;;8.25;7.18;;;;;;;20.27;59.33;96283.59;6250826;22;20007;-94
2021/07/23 08:36:02;;;;;;;10.18;7.05;;;;;;;20.41;59.85;96268.59;6250435;22;20004;-95
2021/07/23 08:38:27;;;;;;;8.70;7.10;;;;;;;20.62;56.46;96279.81;6250401;22;20008;-95
2021/07/23 08:40:53;;;;;;;8.68;7.30;;;;;;;20.65;58.22;96256.69;6251054;22;20024;-95
2021/07/23 08:43:18;;;;;;;10.73;7.07;;;;;;;20.81;54.52;96265.19;6252374;22;20030;-94
2021/07/23 08:45:45;;;;;;;9.40;7.00;;;;;;;21.11;56.80;96276.72;6254976;22;20029;-96
2021/07/23 08:48:10;;;;;;;6.70;6.00;;;;;;;21.41;55.76;96286.72;6252234;22;20086;-95
2021/07/23 08:50:37;;;;;;;7.85;6.05;;;;;;;21.43;55.05;96253.78;6252708;22;20035;-95
2021/07/23 08:53:09;;;;;;;7.65;6.50;;;;;;;21.65;54.16;96283.72;6252261;22;20010;-94
2021/07/23 08:55:35;;;;;;;8.77;6.90;;;;;;;21.53;53.06;96254.09;6256618;22;20012;-94
2021/07/23 08:58:00;;;;;;;10.00;6.20;;;;;;;21.74;55.38;96263.22;6252043;22;20015;-95
2021/07/23 09:00:26;;;;;;;10.13;6.55;;;;;;;21.53;53.30;96251.34;6252127;22;20090;-94
2021/07/23 09:02:59;;;;;;;8.82;5.60;;;;;;;21.73;50.81;96274.78;6252037;22;20095;-95
